Golden Ridge, Montana
Current Conditions -  °F | °C
As of 1:53 PM on Friday 19 Dec 2014 (Local Time) from KGTF Reporting Station
Few Clouds Few Clouds  
Wind Chill: 42°   Ceiling: Unl
Heat Index: 48°   Visibility: 10mi
Dew Point: 28°   Wind: 17mph
Humidity: 46%   Direction: 230°SW
Pressure: 29.77"   Gusts: NA
Location:  47.6169°N, 112.098°W
Report Text: KGTF 192053Z 23015KT 10SM FEW100 09/M02 A2977 RMK AO2 PK WND 22029/2023 SLP104 T00891022 56018
Loading
Personal Weather Stations






























Interactive Weather Map New forecast layout! Learn more

10-Day Weather Forecast

Advertisements
Track Severe Weather on mobile